Time;durP1;ratioP1;P1;durP2;ratioP2;P2;SDS_P1;SDS_P2;PMS_P1;PMS_P2;Temp;Humidity;BMP_temperature;BMP_pressure;BME280_temperature;BME280_humidity;BME280_pressure;Samples;Min_cycle;Max_cycle;Signal;HPM_P1;HPM_P2
2022/02/13 00:01:37;;;;;;;;;35.00;31.50;;;;;4.63;57.69;101983.69;5042865;28;45412;-81
2022/02/13 00:04:03;;;;;;;;;30.50;25.50;;;;;4.59;57.92;101968.91;5042501;28;45268;-81
2022/02/13 00:06:29;;;;;;;;;38.25;32.00;;;;;4.58;57.92;101969.75;5042660;28;45454;-82
2022/02/13 00:08:55;;;;;;;;;35.25;32.50;;;;;4.55;58.01;101952.34;5041784;28;45327;-84
2022/02/13 00:11:20;;;;;;;;;41.00;35.75;;;;;4.53;58.00;101954.06;5021528;28;46749;-81
2022/02/13 00:13:47;;;;;;;;;36.50;33.00;;;;;4.49;57.58;101940.13;5032991;28;45458;-85
2022/02/13 00:16:12;;;;;;;;;35.00;34.50;;;;;4.46;58.19;101934.91;5042041;28;45934;-83
2022/02/13 00:18:38;;;;;;;;;34.75;25.75;;;;;4.45;57.90;101940.94;5033756;28;45582;-83
2022/02/13 00:21:03;;;;;;;;;34.50;31.50;;;;;4.40;58.25;101929.59;5042574;28;45498;-81
2022/02/13 00:23:29;;;;;;;;;34.75;32.00;;;;;4.41;58.27;101922.66;5042269;28;46647;-79
2022/02/13 00:25:54;;;;;;;;;33.75;30.00;;;;;4.36;57.97;101909.59;5041936;28;45243;-79
2022/02/13 00:28:19;;;;;;;;;42.75;37.25;;;;;4.31;58.39;101904.34;5041588;28;45436;-79
2022/02/13 00:30:46;;;;;;;;;33.50;31.75;;;;;4.29;58.04;101906.06;5041900;28;45226;-81
2022/02/13 00:33:16;;;;;;;;;37.50;34.25;;;;;4.29;58.05;101908.66;5039447;28;45554;-82
2022/02/13 00:35:42;;;;;;;;;36.25;31.50;;;;;4.28;58.58;101910.38;5042245;28;45920;-82
2022/02/13 00:38:08;;;;;;;;;36.75;30.75;;;;;4.28;58.37;101906.91;5036846;28;45454;-81
2022/02/13 00:40:34;;;;;;;;;38.75;35.00;;;;;4.24;58.07;101897.31;5042363;28;45383;-81
2022/02/13 00:42:59;;;;;;;;;52.00;39.75;;;;;4.22;58.57;101886.88;5041842;28;45230;-82
2022/02/13 00:45:25;;;;;;;;;39.50;30.75;;;;;4.25;59.04;101881.72;5042079;28;45293;-84
2022/02/13 00:47:50;;;;;;;;;34.50;32.25;;;;;4.26;58.64;101879.97;5029744;28;45189;-82
2022/02/13 00:50:16;;;;;;;;;35.50;30.75;;;;;4.27;58.47;101871.34;5039945;28;45458;-82
2022/02/13 00:52:41;;;;;;;;;31.00;28.00;;;;;4.30;59.16;101867.91;5041950;28;45245;-83
2022/02/13 00:55:07;;;;;;;;;35.00;32.25;;;;;4.31;58.68;101864.41;5041940;28;45261;-81
2022/02/13 00:57:32;;;;;;;;;36.75;32.75;;;;;4.34;58.88;101859.25;5040045;28;45284;-81
2022/02/13 00:59:58;;;;;;;;;47.25;39.25;;;;;4.33;58.56;101862.69;5039622;28;45238;-82
2022/02/13 01:02:23;;;;;;;;;40.00;33.00;;;;;4.34;58.61;101860.13;5030602;28;46289;-81
2022/02/13 01:04:48;;;;;;;;;39.75;32.75;;;;;4.35;58.85;101863.59;5038734;28;45652;-81
2022/02/13 01:07:14;;;;;;;;;32.00;28.25;;;;;4.33;58.17;101857.50;5028941;28;45429;-81
2022/02/13 01:09:40;;;;;;;;;32.50;27.25;;;;;4.34;58.33;101854.94;5039111;28;45473;-81
2022/02/13 01:12:06;;;;;;;;;35.00;31.00;;;;;4.31;58.38;101849.69;5046244;28;45552;-81
2022/02/13 01:14:31;;;;;;;;;34.75;29.75;;;;;4.28;58.60;101844.44;5040676;28;45322;-81
2022/02/13 01:16:56;;;;;;;;;30.75;30.00;;;;;4.27;58.62;101840.94;5032400;28;45408;-81
2022/02/13 01:19:22;;;;;;;;;33.75;30.75;;;;;4.23;58.60;101851.31;5041449;28;45517;-81
2022/02/13 01:21:47;;;;;;;;;32.00;28.75;;;;;4.22;58.80;101844.38;5041182;28;45434;-81
2022/02/13 01:24:13;;;;;;;;;64.75;48.75;;;;;4.21;59.13;101840.91;5041466;28;45315;-81
2022/02/13 01:26:38;;;;;;;;;54.25;41.50;;;;;4.23;59.46;101846.09;5040546;28;45264;-81
2022/02/13 01:29:03;;;;;;;;;38.00;35.25;;;;;4.24;58.90;101842.66;5027820;28;45424;-81
2022/02/13 01:31:30;;;;;;;;;45.50;34.75;;;;;4.22;59.13;101829.59;5041397;28;46164;-81
2022/02/13 01:33:56;;;;;;;;;35.00;30.25;;;;;4.23;58.60;101830.50;5040596;28;45287;-81
2022/02/13 01:36:21;;;;;;;;;31.25;30.25;;;;;4.21;58.57;101827.00;5040747;28;45435;-81
2022/02/13 01:38:47;;;;;;;;;38.25;31.25;;;;;4.21;59.20;101827.00;5041184;28;45205;-82
2022/02/13 01:41:12;;;;;;;;;33.25;29.00;;;;;4.16;58.88;101825.22;5040298;28;45630;-80
2022/02/13 01:43:38;;;;;;;;;41.00;34.25;;;;;4.15;58.43;101822.59;5040103;28;45283;-82
2022/02/13 01:46:03;;;;;;;;;40.75;35.75;;;;;4.15;59.20;101827.78;5015653;28;45260;-82
2022/02/13 01:48:30;;;;;;;;;40.25;33.50;;;;;4.10;59.14;101824.28;5020210;28;46164;-82
2022/02/13 01:50:56;;;;;;;;;37.75;32.75;;;;;4.10;59.17;101832.09;5040994;28;45453;-82
2022/02/13 01:53:22;;;;;;;;;42.75;37.00;;;;;4.07;58.91;101832.06;5040369;28;45630;-80
2022/02/13 01:55:48;;;;;;;;;37.25;34.50;;;;;4.09;58.79;101841.63;5040574;28;45295;-82
2022/02/13 01:58:15;;;;;;;;;43.25;35.75;;;;;4.03;59.07;101833.72;5040721;28;45504;-83
2022/02/13 02:00:40;;;;;;;;;41.50;36.75;;;;;3.99;59.40;101826.75;5040303;28;46427;-82
2022/02/13 02:03:06;;;;;;;;;45.25;38.00;;;;;4.00;59.11;101838.91;5032884;28;45431;-83
2022/02/13 02:05:31;;;;;;;;;48.25;36.50;;;;;3.97;59.23;101833.66;5038123;28;45434;-82
2022/02/13 02:07:56;;;;;;;;;40.50;36.75;;;;;3.93;59.00;101828.41;5040611;28;45173;-82
2022/02/13 02:10:23;;;;;;;;;39.50;35.75;;;;;3.92;59.33;101831.00;5042141;28;45341;-82
2022/02/13 02:12:49;;;;;;;;;38.25;35.00;;;;;3.90;59.13;101827.53;5023200;28;45384;-81
2022/02/13 02:15:14;;;;;;;;;34.25;34.00;;;;;3.90;59.15;101823.16;5040738;28;45521;-81
2022/02/13 02:17:40;;;;;;;;;39.50;36.00;;;;;3.86;59.49;101815.31;5038923;28;45487;-81
2022/02/13 02:20:06;;;;;;;;;41.25;34.50;;;;;3.85;59.39;101808.38;5040650;28;46170;-81
2022/02/13 02:22:31;;;;;;;;;43.50;38.00;;;;;3.81;59.49;101804.84;5039603;28;45316;-80
2022/02/13 02:24:56;;;;;;;;;35.50;33.00;;;;;3.78;59.27;101795.28;5040816;28;45445;-79
2022/02/13 02:27:22;;;;;;;;;29.75;29.75;;;;;3.76;59.95;101789.19;5040224;28;45447;-81
2022/02/13 02:29:47;;;;;;;;;38.00;34.50;;;;;3.77;59.70;101790.06;5039249;28;46094;-80
2022/02/13 02:32:13;;;;;;;;;41.75;36.75;;;;;3.73;59.64;101778.75;5039687;28;45465;-82
2022/02/13 02:34:39;;;;;;;;;45.50;37.25;;;;;3.72;59.82;101771.81;5040447;28;45414;-82
2022/02/13 02:37:06;;;;;;;;;33.75;31.00;;;;;3.67;59.53;101763.06;5040121;28;45405;-81
2022/02/13 02:39:31;;;;;;;;;38.50;32.00;;;;;3.67;59.48;101758.75;5039588;28;45451;-81
2022/02/13 02:41:56;;;;;;;;;41.75;34.25;;;;;3.66;59.89;101746.59;5039407;28;45269;-81
2022/02/13 02:44:22;;;;;;;;;41.25;35.75;;;;;3.62;59.86;101742.22;5040567;28;45308;-81
2022/02/13 02:46:47;;;;;;;;;40.00;32.00;;;;;3.59;59.60;101735.25;5040139;28;45971;-82
2022/02/13 02:49:13;;;;;;;;;33.75;32.00;;;;;3.58;59.80;101741.28;5037345;28;46460;-82
2022/02/13 02:51:38;;;;;;;;;36.75;33.75;;;;;3.55;59.46;101738.69;5035306;28;45216;-81
2022/02/13 02:54:03;;;;;;;;;43.00;36.00;;;;;3.55;59.91;101730.88;5040453;28;45246;-81
2022/02/13 02:56:29;;;;;;;;;40.25;30.50;;;;;3.52;60.00;101723.03;5039672;28;45414;-81
2022/02/13 02:58:55;;;;;;;;;41.00;34.25;;;;;3.49;59.77;101725.59;5038871;28;45438;-82
2022/02/13 03:01:20;;;;;;;;;37.50;32.75;;;;;3.50;59.51;101727.34;5036981;28;45423;-82
2022/02/13 03:03:45;;;;;;;;;37.00;32.00;;;;;3.47;59.72;101730.78;5032956;28;45465;-82
2022/02/13 03:06:11;;;;;;;;;34.75;34.75;;;;;3.49;59.96;101733.38;5039668;28;45482;-82
2022/02/13 03:08:36;;;;;;;;;39.00;35.00;;;;;3.43;60.29;101723.75;5039876;28;45365;-81
2022/02/13 03:11:02;;;;;;;;;35.00;34.50;;;;;3.43;60.19;101725.53;5041912;28;45375;-82
2022/02/13 03:13:27;;;;;;;;;34.50;30.00;;;;;3.42;60.09;101722.03;5039586;28;45252;-79
2022/02/13 03:15:53;;;;;;;;;38.00;32.75;;;;;3.38;60.44;101717.66;5039643;28;45303;-79
2022/02/13 03:18:19;;;;;;;;;39.50;35.00;;;;;3.34;60.53;101719.34;5039826;28;45280;-82
2022/02/13 03:20:49;;;;;;;;;36.50;31.75;;;;;3.30;59.88;101717.56;5038800;28;45154;-81
2022/02/13 03:23:16;;;;;;;;;35.75;34.75;;;;;3.31;59.76;101714.09;5034929;28;45284;-81
2022/02/13 03:25:41;;;;;;;;;41.75;36.75;;;;;3.26;60.19;101711.44;5039453;28;45446;-82
2022/02/13 03:28:08;;;;;;;;;27.50;24.75;;;;;3.24;60.50;101700.16;5039359;28;45470;-81
2022/02/13 03:30:34;;;;;;;;;35.00;31.75;;;;;3.26;60.07;101698.44;5037773;28;45466;-82
2022/02/13 03:32:59;;;;;;;;;42.75;37.00;;;;;3.22;59.89;101691.47;5039700;28;45202;-80
2022/02/13 03:35:24;;;;;;;;;31.75;30.25;;;;;3.23;60.30;101687.16;5039247;28;45632;-80
2022/02/13 03:37:50;;;;;;;;;34.75;31.00;;;;;3.20;60.10;101675.00;5038619;28;45277;-80
2022/02/13 03:40:16;;;;;;;;;35.00;33.25;;;;;3.24;60.13;101676.75;5038578;28;45470;-82
2022/02/13 03:42:41;;;;;;;;;35.50;28.00;;;;;3.19;61.00;101678.44;5039461;28;45263;-82
2022/02/13 03:45:07;;;;;;;;;37.75;30.00;;;;;3.19;61.01;101680.13;5039290;28;45211;-82
2022/02/13 03:47:33;;;;;;;;;34.25;30.75;;;;;3.19;60.34;101678.44;5038668;28;45367;-82
2022/02/13 03:49:58;;;;;;;;;34.25;33.25;;;;;3.15;60.43;101677.53;5038505;28;45359;-82
2022/02/13 03:52:23;;;;;;;;;32.25;29.00;;;;;3.15;60.39;101677.53;5038790;28;45216;-81
2022/02/13 03:54:49;;;;;;;;;32.75;28.50;;;;;3.19;60.63;101685.34;5039100;28;45403;-81
2022/02/13 03:57:15;;;;;;;;;33.50;31.25;;;;;3.16;60.43;101668.00;5038505;28;46171;-82
2022/02/13 03:59:40;;;;;;;;;37.75;34.25;;;;;3.13;61.03;101653.25;5038305;28;45364;-81
2022/02/13 04:02:06;;;;;;;;;40.00;31.50;;;;;3.11;61.17;101649.75;5029870;28;45441;-81
2022/02/13 04:04:31;;;;;;;;;36.50;31.75;;;;;3.10;60.43;101658.41;5039036;28;45583;-83
2022/02/13 04:06:56;;;;;;;;;29.75;25.25;;;;;3.09;61.00;101656.66;5032581;28;46227;-83
2022/02/13 04:09:22;;;;;;;;;36.25;28.50;;;;;3.08;60.12;101657.50;5033915;28;45474;-81
2022/02/13 04:11:47;;;;;;;;;38.00;36.00;;;;;3.05;61.14;101649.66;5043206;28;45331;-80
2022/02/13 04:14:12;;;;;;;;;35.75;32.00;;;;;3.04;60.54;101653.09;5038780;28;45481;-80
2022/02/13 04:16:38;;;;;;;;;41.75;36.25;;;;;3.07;61.08;101660.94;5032188;28;46592;-81
2022/02/13 04:19:03;;;;;;;;;39.00;35.75;;;;;3.04;61.10;101658.31;5034478;28;45508;-81
2022/02/13 04:21:29;;;;;;;;;38.00;34.75;;;;;3.01;61.12;101653.94;5038433;28;45307;-81
2022/02/13 04:23:54;;;;;;;;;32.00;29.75;;;;;3.01;60.34;101653.94;5035650;28;45204;-81
2022/02/13 04:26:20;;;;;;;;;40.50;31.25;;;;;2.98;60.49;101643.53;5017209;28;46499;-82
2022/02/13 04:28:45;;;;;;;;;35.25;34.25;;;;;2.98;61.43;101647.84;5034088;28;45225;-80
2022/02/13 04:31:10;;;;;;;;;36.00;30.75;;;;;2.98;60.73;101647.84;5038938;28;45277;-80
2022/02/13 04:33:36;;;;;;;;;37.50;33.50;;;;;2.99;61.09;101646.97;5038644;28;45185;-80
2022/02/13 04:36:02;;;;;;;;;30.25;28.25;;;;;2.97;61.15;101638.28;5038112;28;46415;-80
2022/02/13 04:38:27;;;;;;;;;32.75;31.75;;;;;2.96;61.05;101641.75;5034555;28;45247;-80
2022/02/13 04:40:53;;;;;;;;;38.00;33.25;;;;;2.96;61.30;101639.16;5039322;28;45179;-81
2022/02/13 04:43:18;;;;;;;;;32.25;29.25;;;;;2.97;61.14;101631.38;5041897;28;45416;-81
2022/02/13 04:45:43;;;;;;;;;30.25;29.50;;;;;2.95;61.21;101625.31;5042132;28;45257;-81
2022/02/13 04:48:09;;;;;;;;;32.25;29.50;;;;;2.97;60.86;101615.81;5037315;28;45533;-80
2022/02/13 04:50:34;;;;;;;;;31.00;30.25;;;;;2.96;61.28;101619.25;5042190;28;45344;-85
2022/02/13 04:53:00;;;;;;;;;35.50;32.50;;;;;2.95;61.48;101603.66;5041289;28;45239;-85
2022/02/13 04:55:25;;;;;;;;;33.25;27.25;;;;;2.91;61.64;101602.75;5041998;28;46373;-85
2022/02/13 04:57:51;;;;;;;;;37.50;33.50;;;;;2.90;61.09;101593.19;5040712;28;45440;-83
2022/02/13 05:00:18;;;;;;;;;39.75;33.25;;;;;2.90;60.81;101595.78;5042203;28;45277;-86
2022/02/13 05:02:44;;;;;;;;;33.50;32.25;;;;;2.92;61.18;101588.91;5040735;28;45376;-86
2022/02/13 05:05:11;;;;;;;;;42.75;35.00;;;;;2.89;61.48;101589.72;5034146;28;46595;-80
2022/02/13 05:07:36;;;;;;;;;40.75;32.50;;;;;2.88;61.35;101580.22;5041020;28;45279;-83
2022/02/13 05:10:03;;;;;;;;;37.25;32.00;;;;;2.89;60.97;101576.75;5038180;28;45570;-83
2022/02/13 05:12:29;;;;;;;;;37.00;33.50;;;;;2.89;61.56;101581.94;5045002;28;45499;-83
2022/02/13 05:14:54;;;;;;;;;38.00;28.00;;;;;2.89;60.83;101576.75;5036726;28;45435;-83
2022/02/13 05:17:23;;;;;;;;;33.25;28.25;;;;;2.89;61.26;101576.75;5041616;28;45454;-83
2022/02/13 05:19:49;;;;;;;;;31.75;30.75;;;;;2.89;61.90;101571.53;5040923;28;46383;-83
2022/02/13 05:22:16;;;;;;;;;37.00;31.00;;;;;2.91;61.81;101572.44;5041541;28;45341;-83
2022/02/13 05:24:42;;;;;;;;;35.00;29.25;;;;;2.90;61.54;101567.22;5040844;28;45398;-82
2022/02/13 05:27:07;;;;;;;;;31.50;27.25;;;;;2.88;61.79;101556.84;5041321;28;45480;-83
2022/02/13 05:29:34;;;;;;;;;38.50;32.00;;;;;2.88;61.40;101554.25;5040895;28;45193;-81
2022/02/13 05:32:00;;;;;;;;;32.00;31.50;;;;;2.88;60.79;101549.03;5041249;28;45482;-81
2022/02/13 05:34:25;;;;;;;;;37.25;29.25;;;;;2.87;61.40;101549.88;5034165;28;46431;-80
2022/02/13 05:36:51;;;;;;;;;27.75;21.50;;;;;2.88;61.88;101542.97;5040613;28;45411;-79
2022/02/13 05:39:16;;;;;;;;;31.50;27.00;;;;;2.88;61.90;101546.44;5037121;28;45344;-79
2022/02/13 05:41:42;;;;;;;;;36.75;30.00;;;;;2.89;61.68;101540.38;5040972;28;45361;-80
2022/02/13 05:44:08;;;;;;;;;30.75;28.50;;;;;2.88;61.47;101540.38;5040567;28;45352;-80
2022/02/13 05:46:33;;;;;;;;;47.25;35.50;;;;;2.90;61.55;101533.47;5019666;28;45462;-80
2022/02/13 05:48:59;;;;;;;;;28.25;25.25;;;;;2.91;61.12;101536.06;5041473;28;45293;-79
2022/02/13 05:51:26;;;;;;;;;31.00;24.75;;;;;2.89;61.10;101527.41;5040870;28;45506;-84
2022/02/13 05:53:54;;;;;;;;;26.75;22.25;;;;;2.92;61.13;101542.16;5022128;28;47394;-84
2022/02/13 05:56:20;;;;;;;;;32.50;26.25;;;;;2.94;61.22;101542.19;5040185;28;46016;-85
2022/02/13 05:58:46;;;;;;;;;30.00;29.00;;;;;2.92;61.16;101545.63;5023357;28;45270;-84
2022/02/13 06:01:12;;;;;;;;;34.75;27.25;;;;;2.90;60.65;101536.06;5040922;28;45394;-84
2022/02/13 06:03:37;;;;;;;;;27.75;25.50;;;;;2.90;61.05;101534.34;5023041;28;47156;-84
2022/02/13 06:06:03;;;;;;;;;28.25;28.00;;;;;2.90;61.18;101531.75;5040157;28;45408;-84
2022/02/13 06:08:29;;;;;;;;;36.50;27.75;;;;;2.88;61.07;101525.66;5036099;28;45305;-85
2022/02/13 06:10:55;;;;;;;;;30.25;24.00;;;;;2.88;60.57;101528.25;5039906;28;45437;-84
2022/02/13 06:13:20;;;;;;;;;36.75;32.25;;;;;2.89;61.28;101519.59;5022427;28;48093;-82
2022/02/13 06:15:46;;;;;;;;;30.00;27.00;;;;;2.92;61.37;101534.34;5038247;28;45209;-83
2022/02/13 06:18:11;;;;;;;;;26.00;22.00;;;;;2.91;61.07;101522.25;5040229;28;45383;-82
2022/02/13 06:20:36;;;;;;;;;32.00;26.75;;;;;2.91;61.45;101523.09;5040493;28;45412;-80
2022/02/13 06:23:02;;;;;;;;;27.50;25.00;;;;;2.91;60.89;101520.50;5040668;28;46429;-79
2022/02/13 06:25:27;;;;;;;;;30.00;27.00;;;;;2.89;60.78;101508.38;5040129;28;45317;-79
2022/02/13 06:27:53;;;;;;;;;25.25;25.25;;;;;2.91;61.32;101517.88;5039848;28;45249;-79
2022/02/13 06:30:18;;;;;;;;;35.00;29.50;;;;;2.90;60.86;101521.38;5040595;28;45150;-81
2022/02/13 06:32:43;;;;;;;;;32.75;26.75;;;;;2.92;60.70;101518.78;5040495;28;46167;-81
2022/02/13 06:35:09;;;;;;;;;30.25;26.00;;;;;2.90;60.76;101523.97;5039855;28;45254;-79
2022/02/13 06:37:37;;;;;;;;;28.75;27.00;;;;;2.91;60.96;101520.50;5039185;28;45328;-79
2022/02/13 06:40:03;;;;;;;;;30.25;27.50;;;;;2.94;61.48;101532.63;5034466;28;45312;-80
2022/02/13 06:42:28;;;;;;;;;25.00;24.50;;;;;2.92;61.11;101524.84;5040158;28;45454;-80
2022/02/13 06:44:53;;;;;;;;;25.75;23.25;;;;;2.92;61.47;101519.66;5038378;28;45357;-81
2022/02/13 06:47:19;;;;;;;;;30.75;25.50;;;;;2.96;61.37;101515.38;5034445;28;45803;-81
2022/02/13 06:49:44;;;;;;;;;31.25;30.50;;;;;2.97;60.90;101513.63;5016323;28;45356;-82
2022/02/13 06:52:09;;;;;;;;;27.00;26.00;;;;;2.99;61.62;101511.91;5040167;28;46233;-83
2022/02/13 06:54:35;;;;;;;;;32.75;28.00;;;;;2.99;61.05;101493.72;5021440;28;45242;-83
2022/02/13 06:57:00;;;;;;;;;29.75;26.00;;;;;3.02;60.56;101494.66;5039318;28;45225;-82
2022/02/13 06:59:26;;;;;;;;;28.25;26.00;;;;;3.02;60.42;101492.06;5036629;28;45411;-82
2022/02/13 07:01:52;;;;;;;;;31.75;26.25;;;;;3.03;61.25;101490.34;5037865;28;45619;-82
2022/02/13 07:04:17;;;;;;;;;32.75;27.75;;;;;3.01;61.09;101481.66;5034635;28;45312;-83
2022/02/13 07:06:43;;;;;;;;;32.00;27.75;;;;;3.04;60.90;101481.66;5039349;28;46602;-83
2022/02/13 07:09:08;;;;;;;;;32.50;28.50;;;;;3.05;60.72;101478.22;5039021;28;45430;-83
2022/02/13 07:11:34;;;;;;;;;31.75;29.75;;;;;3.02;60.99;101473.88;5025826;28;47164;-82
2022/02/13 07:14:00;;;;;;;;;32.50;31.00;;;;;3.04;61.17;101471.28;5037556;28;45469;-82
2022/02/13 07:16:26;;;;;;;;;26.25;21.75;;;;;3.02;61.25;101467.78;5032761;28;45453;-83
2022/02/13 07:18:52;;;;;;;;;32.00;30.00;;;;;3.03;60.43;101473.03;5032993;28;45568;-82
2022/02/13 07:21:17;;;;;;;;;30.75;27.00;;;;;3.05;60.82;101473.03;5034859;28;46475;-82
2022/02/13 07:23:43;;;;;;;;;30.75;27.50;;;;;3.03;61.17;101462.63;5034891;28;45426;-81
2022/02/13 07:26:10;;;;;;;;;30.00;26.00;;;;;3.04;60.84;101471.28;5038560;28;45374;-79
2022/02/13 07:31:19;;;;;;;;;32.75;28.25;;;;;3.04;60.41;101466.09;5034640;28;45599;-81
2022/02/13 07:33:44;;;;;;;;;31.75;29.25;;;;;3.05;61.25;101470.44;5036901;28;45221;-80
2022/02/13 07:36:09;;;;;;;;;37.25;31.50;;;;;3.05;61.22;101465.25;5029443;28;45393;-80
2022/02/13 07:38:35;;;;;;;;;33.75;31.00;;;;;3.06;60.67;101459.19;5033173;28;45515;-80
2022/02/13 07:41:00;;;;;;;;;35.75;28.00;;;;;3.08;61.58;101462.69;5027467;28;46016;-79
2022/02/13 07:43:25;;;;;;;;;38.50;30.75;;;;;3.09;61.77;101480.00;5026684;28;45410;-80
2022/02/13 07:45:51;;;;;;;;;36.25;31.00;;;;;3.08;61.68;101467.88;5026242;28;46839;-80
2022/02/13 07:48:16;;;;;;;;;33.25;31.00;;;;;3.16;61.69;101480.94;5037251;28;45478;-80
2022/02/13 07:50:41;;;;;;;;;39.00;32.00;;;;;3.14;61.39;101473.13;5028339;28;45335;-79
2022/02/13 07:53:07;;;;;;;;;29.25;27.25;;;;;3.18;61.68;101467.97;5027083;28;45741;-80
2022/02/13 07:55:33;;;;;;;;;39.50;31.25;;;;;3.22;60.85;101467.13;5016276;28;45312;-79
2022/02/13 07:57:59;;;;;;;;;33.25;30.75;;;;;3.21;61.27;101453.25;5025010;28;45594;-80
2022/02/13 08:00:25;;;;;;;;;39.00;31.50;;;;;3.23;60.93;101451.56;5032906;28;45412;-79
2022/02/13 08:02:50;;;;;;;;;37.50;31.50;;;;;3.23;61.27;101446.38;5029299;28;45481;-80
2022/02/13 08:05:16;;;;;;;;;37.75;35.25;;;;;3.28;61.32;101441.22;5028707;28;45502;-79
2022/02/13 08:07:49;;;;;;;;;40.25;36.75;;;;;3.32;61.52;101434.31;5027106;28;45384;-79
2022/02/13 08:10:15;;;;;;;;;35.25;27.75;;;;;3.37;61.51;101428.28;5030980;28;45676;-80
2022/02/13 08:12:40;;;;;;;;;33.00;29.25;;;;;3.42;61.02;101417.06;5033691;28;45331;-82
2022/02/13 08:15:06;;;;;;;;;37.00;32.00;;;;;3.42;61.02;101404.06;5031738;28;45511;-84
2022/02/13 08:17:31;;;;;;;;;33.75;28.75;;;;;3.46;61.17;101408.41;5033413;28;45842;-82
2022/02/13 08:19:58;;;;;;;;;37.00;34.00;;;;;3.53;60.90;101414.56;5030485;28;45538;-82
2022/02/13 08:22:23;;;;;;;;;33.00;31.75;;;;;3.55;61.47;101403.31;5010316;28;45499;-81
2022/02/13 08:24:49;;;;;;;;;38.00;31.00;;;;;3.58;61.25;101395.50;5017451;28;45440;-82
2022/02/13 08:27:14;;;;;;;;;30.00;27.75;;;;;3.62;60.94;101387.75;5030994;28;45443;-81
2022/02/13 08:29:39;;;;;;;;;36.75;35.00;;;;;3.66;61.28;101392.09;5033287;28;45421;-82
2022/02/13 08:32:05;;;;;;;;;30.75;29.50;;;;;3.67;61.03;101375.66;5038642;28;45268;-84
2022/02/13 08:34:31;;;;;;;;;35.50;35.50;;;;;3.77;61.21;101381.78;5041757;28;45209;-80
2022/02/13 08:36:56;;;;;;;;;38.50;31.75;;;;;3.79;61.65;101373.13;5040076;28;45181;-80
2022/02/13 08:39:21;;;;;;;;;37.75;32.50;;;;;3.82;61.16;101364.47;5041366;28;45428;-80
2022/02/13 08:41:47;;;;;;;;;42.75;36.50;;;;;3.89;61.44;101373.16;5038025;28;46674;-81
2022/02/13 08:44:12;;;;;;;;;43.25;33.50;;;;;3.96;61.07;101371.47;5032489;28;45318;-81
2022/02/13 08:46:37;;;;;;;;;49.75;38.00;;;;;3.98;60.81;101362.81;5030034;28;45269;-81
2022/02/13 08:49:03;;;;;;;;;45.50;35.50;;;;;4.01;60.70;101357.63;5031300;28;45422;-81
2022/02/13 08:51:29;;;;;;;;;43.50;36.25;;;;;4.09;60.94;101364.59;5028364;28;45341;-80
2022/02/13 08:53:55;;;;;;;;;39.75;35.00;;;;;4.11;61.27;101355.06;5016266;28;45289;-80
2022/02/13 08:56:21;;;;;;;;;39.75;36.25;;;;;4.16;61.49;101350.75;5036233;28;46508;-81
2022/02/13 08:58:46;;;;;;;;;39.50;34.75;;;;;4.24;61.23;101355.97;5036495;28;46442;-81
2022/02/13 09:01:12;;;;;;;;;38.50;35.50;;;;;4.25;61.35;101350.78;5035069;28;45512;-80
2022/02/13 09:03:37;;;;;;;;;42.00;35.50;;;;;4.32;61.35;101349.03;5028349;28;45366;-81
2022/02/13 09:06:05;;;;;;;;;35.50;33.00;;;;;4.34;61.21;101344.75;5021732;28;45450;-80
2022/02/13 09:08:30;;;;;;;;;40.75;33.75;;;;;4.38;60.74;101343.00;5032187;28;45398;-81
2022/02/13 09:10:55;;;;;;;;;38.50;35.75;;;;;4.45;61.12;101346.47;5036802;28;45434;-81
2022/02/13 09:13:21;;;;;;;;;40.25;32.50;;;;;4.48;61.07;101342.16;5030463;28;45364;-80
2022/02/13 09:15:46;;;;;;;;;34.75;32.50;;;;;4.53;61.06;101333.47;5027466;28;45417;-80
2022/02/13 09:18:13;;;;;;;;;35.50;32.00;;;;;4.59;60.79;101338.72;5030524;28;45438;-83
2022/02/13 09:20:44;;;;;;;;;37.50;31.25;;;;;4.63;60.58;101327.44;5036035;28;45220;-81
2022/02/13 09:23:13;;;;;;;;;38.00;35.25;;;;;4.67;61.13;101316.16;5037894;28;45323;-81
2022/02/13 09:25:40;;;;;;;;;39.75;28.50;;;;;4.76;61.04;101319.63;5035750;28;45453;-81
2022/02/13 09:28:06;;;;;;;;;40.00;33.00;;;;;4.80;61.22;101311.81;5039753;28;45522;-80
2022/02/13 09:30:32;;;;;;;;;40.25;35.50;;;;;4.88;61.31;101317.03;5041048;28;45411;-81
2022/02/13 09:32:57;;;;;;;;;33.50;29.50;;;;;4.91;61.32;101310.97;5041429;28;45409;-81
2022/02/13 09:35:22;;;;;;;;;40.50;37.50;;;;;4.95;61.23;101303.16;5040565;28;45447;-80
2022/02/13 09:37:50;;;;;;;;;35.50;33.50;;;;;5.02;61.26;101290.97;5022583;28;48131;-80
2022/02/13 09:40:16;;;;;;;;;34.75;25.00;;;;;5.07;61.49;101278.81;5041489;28;45280;-78
2022/02/13 09:42:44;;;;;;;;;29.00;26.75;;;;;5.14;61.51;101274.47;5041098;28;45313;-82
2022/02/13 09:45:10;;;;;;;;;31.25;30.75;;;;;5.20;61.75;101264.91;5036579;28;45473;-81
2022/02/13 09:47:38;;;;;;;;;36.25;32.50;;;;;5.29;61.97;101262.25;5026024;28;45469;-81
2022/02/13 09:50:04;;;;;;;;;32.75;28.00;;;;;5.34;62.08;101255.31;5040792;28;45999;-81
2022/02/13 09:52:30;;;;;;;;;37.75;28.50;;;;;5.45;62.13;101257.03;5023074;28;45360;-81
2022/02/13 09:54:56;;;;;;;;;27.25;26.50;;;;;5.53;62.09;101242.22;5035289;28;45614;-82
2022/02/13 10:00:06;;;;;;;;;34.00;29.00;;;;;5.75;62.44;101223.88;5039345;28;45772;-81
2022/02/13 10:02:38;;;;;;;;;28.50;23.00;;;;;5.84;62.53;101209.91;5040372;28;45224;-80
2022/02/13 10:05:06;;;;;;;;;29.50;25.00;;;;;5.94;62.47;101203.75;5040481;28;45483;-81
2022/02/13 10:07:33;;;;;;;;;34.00;30.25;;;;;6.03;62.19;101196.72;5040046;28;46227;-82
2022/02/13 10:10:00;;;;;;;;;29.75;26.75;;;;;6.17;62.26;101201.91;5040883;28;45818;-81
2022/02/13 10:12:49;;;;;;;;;30.00;27.00;;;;;6.24;62.03;101195.78;5040432;28;45362;-81
2022/02/13 10:15:29;;;;;;;;;31.75;25.00;;;;;6.35;62.40;101185.22;5039978;28;45502;-83
2022/02/13 10:18:08;;;;;;;;;32.25;26.75;;;;;6.47;62.44;101186.88;5038855;28;45420;-81
2022/02/13 10:20:42;;;;;;;;;28.25;26.50;;;;;6.53;61.95;101172.91;5038716;28;45452;-81
2022/02/13 10:23:13;;;;;;;;;32.50;29.75;;;;;6.61;62.18;101172.84;5038068;28;45357;-81
2022/02/13 10:25:40;;;;;;;;;30.75;27.50;;;;;6.72;61.92;101176.19;5029437;28;45609;-80
2022/02/13 10:28:14;;;;;;;;;26.50;24.50;;;;;6.81;62.05;101161.31;5039488;28;46412;-80
2022/02/13 10:30:45;;;;;;;;;30.00;26.00;;;;;6.86;61.90;101151.69;5035727;28;45440;-81
2022/02/13 10:33:21;;;;;;;;;36.50;27.50;;;;;6.94;61.87;101155.06;5032875;28;45272;-81
2022/02/13 10:36:10;;;;;;;;;33.25;30.00;;;;;7.05;61.95;101143.63;5024169;28;45395;-84
2022/02/13 10:38:41;;;;;;;;;29.00;27.50;;;;;7.13;62.22;101140.94;5011671;28;46570;-85
2022/02/13 10:41:11;;;;;;;;;32.50;26.75;;;;;7.22;62.35;101150.41;5036805;28;45271;-84
2022/02/13 10:43:56;;;;;;;;;26.50;24.50;;;;;7.32;61.88;101144.19;5034259;28;45329;-85
2022/02/13 10:46:36;;;;;;;;;30.25;25.50;;;;;7.42;62.48;101135.34;5032813;28;45336;-85
2022/02/13 10:49:03;;;;;;;;;27.00;22.75;;;;;7.51;62.24;101128.22;5040250;28;46237;-85
2022/02/13 10:51:29;;;;;;;;;23.25;20.25;;;;;7.61;62.21;101118.50;5040120;28;45736;-84
2022/02/13 10:53:55;;;;;;;;;24.75;21.00;;;;;7.69;62.66;101115.78;5035893;28;45769;-83
2022/02/13 10:56:22;;;;;;;;;22.25;18.25;;;;;7.78;62.37;101110.41;5013710;28;46234;-83
2022/02/13 10:58:48;;;;;;;;;20.00;18.75;;;;;7.85;62.27;101101.56;5029094;28;45514;-84
2022/02/13 11:01:16;;;;;;;;;23.75;20.00;;;;;7.95;61.98;101102.28;5029694;28;45970;-84
2022/02/13 11:03:48;;;;;;;;;23.75;23.25;;;;;8.01;62.46;101090.88;5029161;28;45541;-85
2022/02/13 11:06:13;;;;;;;;;22.50;19.25;;;;;8.08;62.10;101082.00;5023146;28;46194;-85
2022/02/13 11:08:54;;;;;;;;;27.00;20.50;;;;;8.19;62.19;101079.22;5037476;28;46206;-85
2022/02/13 11:11:21;;;;;;;;;22.50;17.50;;;;;8.26;62.14;101066.88;5020009;28;45498;-85
2022/02/13 11:13:47;;;;;;;;;21.25;19.25;;;;;8.30;62.32;101058.06;5035339;28;45466;-85
2022/02/13 11:16:34;;;;;;;;;24.25;18.75;;;;;8.39;61.95;101057.06;5032980;28;45554;-84
2022/02/13 11:19:13;;;;;;;;;25.00;18.00;;;;;8.46;62.04;101049.06;5037880;28;45438;-84